createdAt,value
2023-07-06T00:00:30.596Z,1018.39
2023-07-06T00:01:00.537Z,1018.39
2023-07-06T00:01:31.664Z,1018.39
2023-07-06T00:02:02.681Z,1018.39
2023-07-06T00:02:33.732Z,1018.49
2023-07-06T00:03:04.710Z,1018.49
2023-07-06T00:03:35.885Z,1018.49
2023-07-06T00:04:06.219Z,1018.39
2023-07-06T00:04:37.170Z,1018.39
2023-07-06T00:05:08.286Z,1018.49
2023-07-06T00:05:39.007Z,1018.49
2023-07-06T00:06:10.045Z,1018.59
2023-07-06T00:06:41.091Z,1018.59
2023-07-06T00:07:12.047Z,1018.49
2023-07-06T00:07:43.074Z,1018.49
2023-07-06T00:08:14.409Z,1018.49
2023-07-06T00:08:44.983Z,1018.49
2023-07-06T00:09:16.038Z,1018.39
2023-07-06T00:09:47.322Z,1018.39
2023-07-06T00:10:19.543Z,1018.39
2023-07-06T00:10:48.975Z,1018.39
2023-07-06T00:11:20.197Z,1018.79
2023-07-06T00:11:51.067Z,1018.79
2023-07-06T00:12:22.012Z,1018.49
2023-07-06T00:12:52.992Z,1018.49
2023-07-06T00:13:24.085Z,1018.49
2023-07-06T00:13:55.055Z,1018.49
2023-07-06T00:14:26.065Z,1018.39
2023-07-06T00:14:57.335Z,1018.39
2023-07-06T00:15:28.947Z,1018.39
2023-07-06T00:15:59.031Z,1018.39
2023-07-06T00:16:30.062Z,1018.29
2023-07-06T00:17:01.436Z,1018.29
2023-07-06T00:17:32.072Z,1018.39
2023-07-06T00:18:03.077Z,1018.39
2023-07-06T00:18:34.305Z,1018.39
2023-07-06T00:19:05.119Z,1018.39
2023-07-06T00:19:36.019Z,1018.49
2023-07-06T00:20:07.746Z,1018.39
2023-07-06T00:20:37.986Z,1018.39
2023-07-06T00:21:08.975Z,1018.39
2023-07-06T00:21:40.002Z,1018.39
2023-07-06T00:22:11.066Z,1018.39
2023-07-06T00:22:42.051Z,1018.39
2023-07-06T00:23:13.018Z,1018.39
2023-07-06T00:23:44.009Z,1018.39
2023-07-06T00:24:15.004Z,1018.39
2023-07-06T00:24:45.951Z,1018.39
2023-07-06T00:25:17.546Z,1018.49
2023-07-06T00:25:48.295Z,1018.49
2023-07-06T00:26:18.962Z,1018.49
2023-07-06T00:26:50.011Z,1018.49
2023-07-06T00:27:20.949Z,1018.49
2023-07-06T00:27:51.964Z,1018.49
2023-07-06T00:28:22.916Z,1018.59
2023-07-06T00:28:53.967Z,1018.59
2023-07-06T00:29:24.957Z,1018.59
2023-07-06T00:29:55.989Z,1018.59
2023-07-06T00:30:27.952Z,1018.49
2023-07-06T00:30:57.925Z,1018.49
2023-07-06T00:31:28.960Z,1018.49
2023-07-06T00:32:00.032Z,1018.49
2023-07-06T00:32:30.958Z,1018.49
2023-07-06T00:33:02.046Z,1018.49
2023-07-06T00:33:32.970Z,1018.49
2023-07-06T00:34:04.239Z,1018.49
2023-07-06T00:34:35.330Z,1018.39
2023-07-06T00:35:06.247Z,1018.39
2023-07-06T00:35:37.148Z,1018.39
2023-07-06T00:36:08.017Z,1018.39
2023-07-06T00:36:39.036Z,1018.39
2023-07-06T00:37:09.967Z,1018.29
2023-07-06T00:37:40.977Z,1018.29
2023-07-06T00:38:12.018Z,1018.49
2023-07-06T00:38:42.962Z,1018.49
2023-07-06T00:39:14.000Z,1018.49
2023-07-06T00:39:45.065Z,1018.49
2023-07-06T00:40:16.562Z,1018.08
2023-07-06T00:40:46.958Z,1018.08
2023-07-06T00:41:17.999Z,1018.29
2023-07-06T00:41:51.066Z,1018.29
2023-07-06T00:42:19.982Z,1018.39
2023-07-06T00:42:50.992Z,1018.39
2023-07-06T00:43:22.221Z,1018.49
2023-07-06T00:43:53.014Z,1018.49
2023-07-06T00:44:24.020Z,1018.49
2023-07-06T00:44:55.032Z,1018.49
2023-07-06T00:45:26.781Z,1018.49
2023-07-06T00:45:57.275Z,1018.49
2023-07-06T00:46:28.008Z,1018.49
2023-07-06T00:46:59.045Z,1018.49
2023-07-06T00:47:30.067Z,1018.49
2023-07-06T00:48:00.964Z,1018.49
2023-07-06T00:48:32.065Z,1018.49
2023-07-06T00:49:03.320Z,1018.49
2023-07-06T00:49:34.047Z,1018.49
2023-07-06T00:50:05.246Z,1018.49
2023-07-06T00:50:36.210Z,1018.29
2023-07-06T00:51:07.048Z,1018.49
2023-07-06T00:51:38.046Z,1018.49
2023-07-06T00:52:09.327Z,1018.49
2023-07-06T00:52:40.004Z,1018.49
2023-07-06T00:53:11.042Z,1018.49
2023-07-06T00:53:42.045Z,1018.49
2023-07-06T00:54:13.035Z,1018.49
2023-07-06T00:54:44.075Z,1018.49
2023-07-06T00:55:15.519Z,1018.59
2023-07-06T00:55:46.119Z,1018.59
2023-07-06T00:56:16.998Z,1018.49
2023-07-06T00:56:48.041Z,1018.49
2023-07-06T00:57:19.025Z,1018.59
2023-07-06T00:57:50.003Z,1018.59
2023-07-06T00:58:21.020Z,1018.69
2023-07-06T00:58:52.044Z,1018.69
2023-07-06T00:59:23.074Z,1018.59
2023-07-06T00:59:54.038Z,1018.59
2023-07-06T01:00:25.890Z,1018.59
2023-07-06T01:00:56.998Z,1018.59
2023-07-06T01:01:27.012Z,1018.59
2023-07-06T01:01:58.024Z,1018.59
2023-07-06T01:02:29.106Z,1018.39
2023-07-06T01:03:00.179Z,1018.39
2023-07-06T01:03:31.120Z,1018.69
2023-07-06T01:04:02.320Z,1018.69
2023-07-06T01:04:33.406Z,1018.59
2023-07-06T01:05:04.537Z,1018.59
2023-07-06T01:05:35.271Z,1018.39
2023-07-06T01:06:06.581Z,1018.39
2023-07-06T01:06:37.415Z,1018.39
2023-07-06T01:07:08.377Z,1018.49
2023-07-06T01:07:39.314Z,1018.49
2023-07-06T01:08:10.318Z,1018.39
2023-07-06T01:08:41.274Z,1018.39
2023-07-06T01:09:12.329Z,1018.39
2023-07-06T01:09:43.616Z,1018.39
2023-07-06T01:10:14.762Z,1018.49
2023-07-06T01:10:45.279Z,1018.49
2023-07-06T01:11:16.546Z,1018.39
2023-07-06T01:11:47.357Z,1018.39
2023-07-06T01:12:18.401Z,1018.49
2023-07-06T01:12:49.329Z,1018.49
2023-07-06T01:13:21.369Z,1018.29
2023-07-06T01:13:51.360Z,1018.29
2023-07-06T01:14:22.311Z,1018.39
2023-07-06T01:14:53.302Z,1018.39
2023-07-06T01:15:25.208Z,1018.39
2023-07-06T01:15:55.850Z,1018.39
2023-07-06T01:16:26.336Z,1018.39
2023-07-06T01:16:57.373Z,1018.39
2023-07-06T01:17:28.422Z,1018.39
2023-07-06T01:17:59.404Z,1018.39
2023-07-06T01:18:30.597Z,1018.39
2023-07-06T01:19:01.304Z,1018.39
2023-07-06T01:19:32.387Z,1018.39
2023-07-06T01:20:03.778Z,1018.39
2023-07-06T01:20:34.504Z,1018.39
2023-07-06T01:21:05.323Z,1018.39
2023-07-06T01:21:36.371Z,1018.39
2023-07-06T01:22:07.392Z,1018.29
2023-07-06T01:22:38.580Z,1018.29
2023-07-06T01:23:09.338Z,1018.29
2023-07-06T01:23:40.320Z,1018.29
2023-07-06T01:24:11.350Z,1018.49
2023-07-06T01:24:42.942Z,1018.49
2023-07-06T01:25:14.108Z,1018.39
2023-07-06T01:25:44.627Z,1018.39
2023-07-06T01:26:15.638Z,1018.29
2023-07-06T01:26:46.621Z,1018.29
2023-07-06T01:27:17.893Z,1018.29
2023-07-06T01:27:48.622Z,1018.29
2023-07-06T01:28:19.647Z,1018.39
2023-07-06T01:28:50.650Z,1018.39
2023-07-06T01:29:21.747Z,1018.18
2023-07-06T01:29:52.922Z,1018.18
2023-07-06T01:30:24.493Z,1018.39
2023-07-06T01:30:54.642Z,1018.39
2023-07-06T01:31:25.692Z,1018.39
2023-07-06T01:31:56.665Z,1018.39
2023-07-06T01:32:27.778Z,1018.39
2023-07-06T01:32:58.680Z,1018.39
2023-07-06T01:33:29.663Z,1018.39
2023-07-06T01:34:00.674Z,1018.39
2023-07-06T01:34:31.612Z,1018.29
2023-07-06T01:35:03.118Z,1018.29
2023-07-06T01:35:33.673Z,1018.49
2023-07-06T01:36:04.914Z,1018.49
2023-07-06T01:36:35.893Z,1018.39
2023-07-06T01:37:06.683Z,1018.29
2023-07-06T01:37:37.120Z,1018.29
2023-07-06T01:38:08.118Z,1018.29
2023-07-06T01:38:39.146Z,1018.29
2023-07-06T01:39:10.143Z,1018.29
2023-07-06T01:39:41.180Z,1018.29
2023-07-06T01:40:12.879Z,1018.29
2023-07-06T01:40:43.631Z,1018.29
2023-07-06T01:41:14.635Z,1018.29
2023-07-06T01:41:45.663Z,1018.29
2023-07-06T01:42:16.663Z,1018.49
2023-07-06T01:42:47.628Z,1018.49
2023-07-06T01:43:20.167Z,1018.39
2023-07-06T01:43:49.598Z,1018.39
2023-07-06T01:44:20.645Z,1018.49
2023-07-06T01:44:53.203Z,1018.49
2023-07-06T01:45:23.751Z,1018.29
2023-07-06T01:45:54.097Z,1018.29
2023-07-06T01:46:24.682Z,1018.29
2023-07-06T01:46:55.701Z,1018.29
2023-07-06T01:47:26.698Z,1018.29
2023-07-06T01:47:57.688Z,1018.29
2023-07-06T01:48:28.648Z,1018.39
2023-07-06T01:48:59.696Z,1018.39
2023-07-06T01:49:30.593Z,1018.39
2023-07-06T01:50:01.848Z,1018.39
2023-07-06T01:50:32.440Z,1018.39
2023-07-06T01:51:03.395Z,1018.39
2023-07-06T01:51:34.183Z,1018.39
2023-07-06T01:52:05.156Z,1018.39
2023-07-06T01:52:36.171Z,1018.39
2023-07-06T01:53:07.166Z,1018.39
2023-07-06T01:53:38.450Z,1018.39
2023-07-06T01:54:09.145Z,1018.39
2023-07-06T01:54:40.147Z,1018.39
2023-07-06T01:55:11.516Z,1018.39
2023-07-06T01:55:42.412Z,1018.39
2023-07-06T01:56:13.144Z,1018.39
2023-07-06T01:56:44.165Z,1018.39
2023-07-06T01:57:15.153Z,1018.39
2023-07-06T01:58:00.391Z,1018.39
2023-07-06T01:58:17.151Z,1018.39
2023-07-06T01:58:48.139Z,1018.39
2023-07-06T01:59:19.169Z,1018.39
2023-07-06T01:59:50.165Z,1018.39
2023-07-06T02:00:21.932Z,1018.39
2023-07-06T02:00:52.692Z,1018.39
2023-07-06T02:01:23.295Z,1018.39
2023-07-06T02:01:54.201Z,1018.39
2023-07-06T02:02:25.624Z,1018.39
2023-07-06T02:02:56.268Z,1018.39
2023-07-06T02:03:27.203Z,1018.39
2023-07-06T02:03:57.550Z,1018.39
2023-07-06T02:04:28.529Z,1018.39
2023-07-06T02:04:59.562Z,1018.39
2023-07-06T02:05:30.870Z,1018.39
2023-07-06T02:06:02.048Z,1018.39
2023-07-06T02:06:32.823Z,1018.39
2023-07-06T02:07:03.574Z,1018.39
2023-07-06T02:07:34.559Z,1018.39
2023-07-06T02:08:05.537Z,1018.39
2023-07-06T02:08:36.570Z,1018.39
2023-07-06T02:09:07.572Z,1018.39
2023-07-06T02:09:38.528Z,1018.39
2023-07-06T02:10:09.798Z,1018.39
2023-07-06T02:10:40.529Z,1018.39
2023-07-06T02:11:12.142Z,1018.39
2023-07-06T02:11:42.528Z,1018.39
2023-07-06T02:12:13.563Z,1018.39
2023-07-06T02:12:44.515Z,1018.39
2023-07-06T02:13:15.555Z,1018.39
2023-07-06T02:13:46.603Z,1018.39
2023-07-06T02:14:17.523Z,1018.39
2023-07-06T02:14:48.548Z,1018.39
2023-07-06T02:15:20.264Z,1018.39
2023-07-06T02:15:50.574Z,1018.39
2023-07-06T02:16:22.711Z,1018.39
2023-07-06T02:16:52.578Z,1018.39
2023-07-06T02:17:23.698Z,1018.39
2023-07-06T02:17:54.566Z,1018.39
2023-07-06T02:18:25.540Z,1018.39
2023-07-06T02:18:56.610Z,1018.39
2023-07-06T02:19:27.537Z,1018.39
2023-07-06T02:19:58.880Z,1018.39
2023-07-06T02:20:30.057Z,1018.39
2023-07-06T02:21:00.549Z,1018.39
2023-07-06T02:21:31.993Z,1018.39
2023-07-06T02:22:02.821Z,1018.39
2023-07-06T02:22:33.588Z,1018.39
2023-07-06T02:23:04.541Z,1018.39
2023-07-06T02:23:35.550Z,1018.39
2023-07-06T02:24:06.554Z,1018.39
2023-07-06T02:24:38.305Z,1018.39
2023-07-06T02:25:09.649Z,1018.39
2023-07-06T02:25:40.322Z,1018.39
2023-07-06T02:26:11.327Z,1018.39
2023-07-06T02:26:42.588Z,1018.39
2023-07-06T02:27:13.355Z,1018.39
2023-07-06T02:27:44.338Z,1018.39
2023-07-06T02:28:15.337Z,1018.39
2023-07-06T02:28:46.698Z,1018.39
2023-07-06T02:29:17.346Z,1018.39
2023-07-06T02:29:48.331Z,1018.39
2023-07-06T02:30:20.192Z,1018.39
2023-07-06T02:30:50.462Z,1018.39
2023-07-06T02:31:21.410Z,1018.39
2023-07-06T02:31:52.386Z,1018.39
2023-07-06T02:32:23.387Z,1018.39
2023-07-06T02:32:54.375Z,1018.39
2023-07-06T02:33:25.336Z,1018.39
2023-07-06T02:33:56.317Z,1018.39
2023-07-06T02:34:27.317Z,1018.39
2023-07-06T02:34:58.367Z,1018.39
2023-07-06T02:35:29.924Z,1018.39
2023-07-06T02:36:00.326Z,1018.39
2023-07-06T02:36:31.344Z,1018.39
2023-07-06T02:37:02.675Z,1018.39
2023-07-06T02:37:33.910Z,1018.39
2023-07-06T02:38:04.368Z,1018.39
2023-07-06T02:38:35.608Z,1018.39
2023-07-06T02:39:06.348Z,1018.39
2023-07-06T02:39:37.600Z,1018.39
2023-07-06T02:40:08.624Z,1018.39
2023-07-06T02:40:39.325Z,1018.39
2023-07-06T02:41:10.303Z,1018.39
2023-07-06T02:41:41.345Z,1018.39
2023-07-06T02:42:12.342Z,1018.39
2023-07-06T02:42:43.614Z,1018.39
2023-07-06T02:43:14.394Z,1018.39
2023-07-06T02:43:45.357Z,1018.39
2023-07-06T02:44:16.421Z,1018.39
2023-07-06T02:44:47.323Z,1018.39
2023-07-06T02:45:19.062Z,1018.39
2023-07-06T02:45:49.435Z,1018.39
2023-07-06T02:46:22.337Z,1018.39
2023-07-06T02:46:51.470Z,1018.39
2023-07-06T02:47:22.331Z,1018.39
2023-07-06T02:47:54.227Z,1018.39
2023-07-06T02:48:24.332Z,1018.39
2023-07-06T02:48:55.331Z,1018.39
2023-07-06T02:49:26.355Z,1018.39
2023-07-06T02:49:57.337Z,1018.39
2023-07-06T02:50:28.919Z,1018.39
2023-07-06T02:50:59.357Z,1018.39
2023-07-06T02:51:30.635Z,1018.39
2023-07-06T02:52:01.336Z,1018.39
2023-07-06T02:52:32.339Z,1018.39
2023-07-06T02:53:03.584Z,1018.39
2023-07-06T02:53:34.371Z,1018.39
2023-07-06T02:54:05.371Z,1018.39
2023-07-06T02:54:36.336Z,1018.39
2023-07-06T02:55:07.930Z,1018.39
2023-07-06T02:55:38.362Z,1018.39
2023-07-06T02:56:09.379Z,1018.39
2023-07-06T02:56:40.598Z,1018.39
2023-07-06T02:57:11.375Z,1018.39
2023-07-06T02:57:42.329Z,1018.39
2023-07-06T02:58:13.364Z,1018.39
2023-07-06T02:58:44.341Z,1018.39
2023-07-06T02:59:15.391Z,1018.39
2023-07-06T02:59:46.326Z,1018.39
2023-07-06T03:00:18.048Z,1018.39
2023-07-06T03:00:48.408Z,1018.39
2023-07-06T03:01:19.377Z,1018.39
2023-07-06T03:01:50.717Z,1018.39
2023-07-06T03:02:21.395Z,1018.39
2023-07-06T03:02:52.424Z,1018.39
2023-07-06T03:03:23.374Z,1018.39
2023-07-06T03:03:53.937Z,1018.39
2023-07-06T03:04:24.692Z,1018.39
2023-07-06T03:04:55.674Z,1018.39
2023-07-06T03:05:27.162Z,1018.39
2023-07-06T03:05:58.034Z,1018.39
2023-07-06T03:06:28.697Z,1018.39
2023-07-06T03:06:59.919Z,1018.39
2023-07-06T03:07:30.674Z,1018.39
2023-07-06T03:08:01.647Z,1018.39
2023-07-06T03:08:32.918Z,1018.39
2023-07-06T03:09:03.681Z,1018.39
2023-07-06T03:09:34.704Z,1018.39
2023-07-06T03:10:05.884Z,1018.39
2023-07-06T03:10:36.662Z,1018.39
2023-07-06T03:11:07.650Z,1018.39
2023-07-06T03:11:38.679Z,1018.39
2023-07-06T03:12:09.920Z,1018.39
2023-07-06T03:12:40.958Z,1018.39
2023-07-06T03:13:11.680Z,1018.39
2023-07-06T03:13:42.696Z,1018.39
2023-07-06T03:14:13.659Z,1018.39
2023-07-06T03:14:44.652Z,1018.39
2023-07-06T03:15:16.480Z,1018.39
2023-07-06T03:15:46.673Z,1018.39
2023-07-06T03:16:18.657Z,1018.39
2023-07-06T03:16:48.685Z,1018.39
2023-07-06T03:17:20.051Z,1018.39
2023-07-06T03:17:50.753Z,1018.39
2023-07-06T03:18:21.761Z,1018.39
2023-07-06T03:18:52.696Z,1018.39
2023-07-06T03:19:24.815Z,1018.39
2023-07-06T03:19:54.719Z,1018.39
2023-07-06T03:20:26.220Z,1018.39
2023-07-06T03:20:56.696Z,1018.39
2023-07-06T03:21:28.004Z,1018.39
2023-07-06T03:21:59.097Z,1018.08
2023-07-06T03:22:30.403Z,1018.01
2023-07-06T03:23:01.167Z,1018.01
2023-07-06T03:23:32.123Z,1018.18
2023-07-06T03:24:03.221Z,1018.18
2023-07-06T03:24:34.694Z,1018.18
2023-07-06T03:25:05.615Z,1018.18
2023-07-06T03:25:36.149Z,1018.01
2023-07-06T03:26:07.471Z,1018.08
2023-07-06T03:26:38.425Z,1018.08
2023-07-06T03:27:09.100Z,1018.18
2023-07-06T03:27:40.231Z,1018.18
2023-07-06T03:28:11.225Z,1018.08
2023-07-06T03:28:44.043Z,1018.08
2023-07-06T03:29:13.237Z,1018.01
2023-07-06T03:29:44.172Z,1018.01
2023-07-06T03:30:16.402Z,1018.08
2023-07-06T03:30:46.172Z,1018.08
2023-07-06T03:31:17.436Z,1018.08
2023-07-06T03:31:48.202Z,1018.08
2023-07-06T03:32:19.254Z,1018.01
2023-07-06T03:32:50.564Z,1018.01
2023-07-06T03:33:21.137Z,1018.08
2023-07-06T03:33:52.772Z,1018.08
2023-07-06T03:34:23.469Z,1018.01
2023-07-06T03:34:54.186Z,1018.01
2023-07-06T03:35:25.667Z,1018.01
2023-07-06T03:35:56.551Z,1018.01
2023-07-06T03:36:27.182Z,1018.08
2023-07-06T03:36:58.242Z,1018.08
2023-07-06T03:37:29.158Z,1018.01
2023-07-06T03:38:00.562Z,1018.01
2023-07-06T03:38:31.181Z,1017.91
2023-07-06T03:39:02.999Z,1017.91
2023-07-06T03:39:33.471Z,1018.08
2023-07-06T03:40:04.533Z,1018.08
2023-07-06T03:40:35.229Z,1018.01
2023-07-06T03:41:06.171Z,1018.01
2023-07-06T03:41:37.193Z,1018.01
2023-07-06T03:42:08.207Z,1017.91
2023-07-06T03:42:39.205Z,1017.91
2023-07-06T03:43:10.222Z,1018.08
2023-07-06T03:43:41.256Z,1018.08
2023-07-06T03:44:12.269Z,1017.91
2023-07-06T03:44:43.514Z,1017.91
2023-07-06T03:45:15.169Z,1018.01
2023-07-06T03:45:45.258Z,1018.01
2023-07-06T03:46:16.245Z,1018.01
2023-07-06T03:46:47.259Z,1018.01
2023-07-06T03:47:18.252Z,1018.08
2023-07-06T03:47:49.580Z,1018.08
2023-07-06T03:48:19.726Z,1018.08
2023-07-06T03:48:50.692Z,1018.08
2023-07-06T03:49:21.708Z,1018.08
2023-07-06T03:49:53.002Z,1018.08
2023-07-06T03:50:24.030Z,1018.08
2023-07-06T03:50:55.663Z,1018.08
2023-07-06T03:51:25.755Z,1018.08
2023-07-06T03:51:56.723Z,1018.08
2023-07-06T03:52:27.716Z,1018.08
2023-07-06T03:52:58.736Z,1018.08
2023-07-06T03:53:29.699Z,1018.08
2023-07-06T03:54:00.740Z,1018.08
2023-07-06T03:54:32.216Z,1018.08
2023-07-06T03:55:03.202Z,1018.08
2023-07-06T03:55:33.719Z,1018.08
2023-07-06T03:56:04.752Z,1018.08
2023-07-06T03:56:36.033Z,1018.08
2023-07-06T03:57:06.752Z,1018.08
2023-07-06T03:57:40.387Z,1018.08
2023-07-06T03:58:08.770Z,1018.08
2023-07-06T03:58:39.701Z,1018.08
2023-07-06T03:59:10.729Z,1018.08
2023-07-06T03:59:42.203Z,1018.01
2023-07-06T04:00:14.247Z,1017.81
2023-07-06T04:00:44.289Z,1017.81
2023-07-06T04:01:15.230Z,1018.08
2023-07-06T04:01:46.329Z,1018.08
2023-07-06T04:02:17.296Z,1018.01
2023-07-06T04:02:48.405Z,1018.01
2023-07-06T04:03:19.304Z,1018.01
2023-07-06T04:03:50.540Z,1018.01
2023-07-06T04:04:21.585Z,1017.91
2023-07-06T04:04:52.582Z,1017.91
2023-07-06T04:05:24.799Z,1018.01
2023-07-06T04:05:54.739Z,1018.01
2023-07-06T04:06:25.661Z,1018.01
2023-07-06T04:06:56.645Z,1018.01
2023-07-06T04:07:27.606Z,1018.08
2023-07-06T04:07:58.578Z,1018.08
2023-07-06T04:08:29.634Z,1018.01
2023-07-06T04:09:00.594Z,1018.01
2023-07-06T04:09:31.067Z,1018.01
2023-07-06T04:10:02.383Z,1018.01
2023-07-06T04:10:33.317Z,1018.01
2023-07-06T04:11:04.078Z,1018.01
2023-07-06T04:11:35.098Z,1018.01
2023-07-06T04:12:06.049Z,1018.01
2023-07-06T04:12:37.104Z,1018.01
2023-07-06T04:13:08.095Z,1018.01
2023-07-06T04:13:39.079Z,1018.01
2023-07-06T04:14:10.414Z,1018.01
2023-07-06T04:14:41.100Z,1018.01
2023-07-06T04:15:13.130Z,1018.01
2023-07-06T04:15:43.551Z,1018.01
2023-07-06T04:16:14.188Z,1018.01
2023-07-06T04:16:45.157Z,1018.01
2023-07-06T04:17:16.087Z,1018.01
2023-07-06T04:17:47.095Z,1018.01
2023-07-06T04:18:18.114Z,1018.01
2023-07-06T04:18:49.092Z,1018.01
2023-07-06T04:19:20.065Z,1018.01
2023-07-06T04:19:51.101Z,1018.01
2023-07-06T04:20:22.686Z,1018.01
2023-07-06T04:20:53.310Z,1018.01
2023-07-06T04:21:24.085Z,1018.01
2023-07-06T04:21:55.092Z,1018.01
2023-07-06T04:22:26.901Z,1018.01
2023-07-06T04:22:57.408Z,1018.01
2023-07-06T04:23:28.097Z,1018.01
2023-07-06T04:23:59.091Z,1018.01
2023-07-06T04:24:29.421Z,1018.01
2023-07-06T04:25:00.890Z,1018.01
2023-07-06T04:25:31.620Z,1018.01
2023-07-06T04:26:02.397Z,1018.01
2023-07-06T04:26:33.383Z,1018.01
2023-07-06T04:27:04.430Z,1018.01
2023-07-06T04:27:35.372Z,1018.01
2023-07-06T04:28:06.501Z,1018.01
2023-07-06T04:28:37.404Z,1018.01
2023-07-06T04:29:08.415Z,1018.01
2023-07-06T04:29:39.429Z,1018.01
2023-07-06T04:30:11.303Z,1018.01
2023-07-06T04:30:41.674Z,1018.01
2023-07-06T04:31:12.485Z,1018.01
2023-07-06T04:31:43.875Z,1018.01
2023-07-06T04:32:14.376Z,1018.01
2023-07-06T04:32:45.398Z,1018.01
2023-07-06T04:33:16.567Z,1018.01
2023-07-06T04:33:47.599Z,1018.01
2023-07-06T04:34:18.403Z,1018.01
2023-07-06T04:34:49.393Z,1018.01
2023-07-06T04:35:21.058Z,1018.01
2023-07-06T04:35:51.439Z,1018.01
2023-07-06T04:36:22.403Z,1018.01
2023-07-06T04:36:53.408Z,1018.01
2023-07-06T04:37:24.383Z,1018.01
2023-07-06T04:37:55.449Z,1018.01
2023-07-06T04:38:26.432Z,1018.01
2023-07-06T04:38:57.404Z,1018.01
2023-07-06T04:39:28.400Z,1018.01
2023-07-06T04:39:59.411Z,1018.01
2023-07-06T04:40:31.497Z,1018.01
2023-07-06T04:41:01.410Z,1018.01
2023-07-06T04:41:32.399Z,1018.01
2023-07-06T04:42:03.397Z,1018.01
2023-07-06T04:42:34.424Z,1018.01
2023-07-06T04:43:05.395Z,1018.01
2023-07-06T04:43:36.444Z,1018.01
2023-07-06T04:44:07.417Z,1018.01
2023-07-06T04:44:38.435Z,1018.01
2023-07-06T04:45:10.123Z,1018.01
2023-07-06T04:45:40.434Z,1018.01
2023-07-06T04:46:11.386Z,1018.01
2023-07-06T04:46:42.467Z,1018.01
2023-07-06T04:47:13.489Z,1018.01
2023-07-06T04:47:44.453Z,1018.01
2023-07-06T04:48:15.391Z,1018.01
2023-07-06T04:48:46.409Z,1018.01
2023-07-06T04:49:17.937Z,1018.01
2023-07-06T04:49:48.407Z,1018.01
2023-07-06T04:50:20.009Z,1018.01
2023-07-06T04:50:50.389Z,1018.01
2023-07-06T04:51:21.406Z,1018.01
2023-07-06T04:51:52.410Z,1018.01
2023-07-06T04:52:23.416Z,1018.01
2023-07-06T04:52:54.404Z,1018.01
2023-07-06T04:53:25.471Z,1018.01
2023-07-06T04:53:57.394Z,1018.01
2023-07-06T04:54:27.791Z,1018.01
2023-07-06T04:54:58.671Z,1018.01
2023-07-06T04:55:30.038Z,1018.01
2023-07-06T04:56:00.933Z,1018.01
2023-07-06T04:56:31.452Z,1018.01
2023-07-06T04:57:02.386Z,1018.01
2023-07-06T04:57:33.430Z,1018.01
2023-07-06T04:58:04.707Z,1018.01
2023-07-06T04:58:35.419Z,1018.01
2023-07-06T04:59:06.403Z,1018.01
2023-07-06T04:59:37.623Z,1018.01
2023-07-06T05:00:09.289Z,1018.01
2023-07-06T05:00:39.444Z,1018.01
2023-07-06T05:01:10.512Z,1018.01
2023-07-06T05:01:41.405Z,1018.01
2023-07-06T05:02:12.385Z,1018.01
2023-07-06T05:02:43.426Z,1018.01
2023-07-06T05:03:14.520Z,1018.01
2023-07-06T05:03:45.801Z,1018.01
2023-07-06T05:04:16.759Z,1018.01
2023-07-06T05:04:47.959Z,1018.01
2023-07-06T05:05:19.344Z,1018.01
2023-07-06T05:05:49.752Z,1018.01
2023-07-06T05:06:20.774Z,1018.01
2023-07-06T05:06:52.075Z,1018.01
2023-07-06T05:07:22.750Z,1018.01
2023-07-06T05:07:53.744Z,1018.01
2023-07-06T05:08:24.735Z,1018.01
2023-07-06T05:08:55.748Z,1018.01
2023-07-06T05:09:26.732Z,1018.01
2023-07-06T05:09:58.027Z,1018.01
2023-07-06T05:10:29.320Z,1018.01
2023-07-06T05:10:59.737Z,1018.01
2023-07-06T05:11:31.012Z,1018.01
2023-07-06T05:12:01.728Z,1018.01
2023-07-06T05:12:32.770Z,1018.01
2023-07-06T05:13:03.745Z,1018.01
2023-07-06T05:13:34.805Z,1018.01
2023-07-06T05:14:05.859Z,1018.01
2023-07-06T05:14:36.744Z,1018.01
2023-07-06T05:15:08.440Z,1018.01
2023-07-06T05:15:39.318Z,1018.01
2023-07-06T05:16:09.756Z,1018.01
2023-07-06T05:16:40.853Z,1018.01
2023-07-06T05:17:11.771Z,1018.01
2023-07-06T05:17:42.826Z,1018.01
2023-07-06T05:18:13.779Z,1018.01
2023-07-06T05:18:44.733Z,1018.01
2023-07-06T05:19:15.742Z,1018.01
2023-07-06T05:19:46.743Z,1018.01
2023-07-06T05:20:18.521Z,1018.01
2023-07-06T05:20:48.739Z,1018.01
2023-07-06T05:21:19.726Z,1018.01
2023-07-06T05:21:50.749Z,1018.01
2023-07-06T05:22:21.782Z,1018.01
2023-07-06T05:22:52.745Z,1018.01
2023-07-06T05:23:23.738Z,1018.01
2023-07-06T05:23:54.763Z,1018.01
2023-07-06T05:24:26.181Z,1018.01
2023-07-06T05:24:56.736Z,1018.01
2023-07-06T05:25:29.616Z,1018.01
2023-07-06T05:25:59.009Z,1018.01
2023-07-06T05:26:29.710Z,1018.01
2023-07-06T05:27:00.786Z,1018.01
2023-07-06T05:27:31.707Z,1018.01
2023-07-06T05:28:02.774Z,1018.01
2023-07-06T05:28:33.760Z,1018.01
2023-07-06T05:29:04.728Z,1018.01
2023-07-06T05:29:36.345Z,1018.01
2023-07-06T05:30:07.232Z,1018.01
2023-07-06T05:30:38.043Z,1018.01
2023-07-06T05:31:08.796Z,1018.01
2023-07-06T05:31:39.740Z,1018.01
2023-07-06T05:32:10.745Z,1018.01
2023-07-06T05:32:41.802Z,1018.01
2023-07-06T05:33:13.027Z,1018.01
2023-07-06T05:33:43.740Z,1018.01
2023-07-06T05:34:15.200Z,1018.49
2023-07-06T05:34:46.308Z,1018.49
2023-07-06T05:35:18.300Z,1018.49
2023-07-06T05:35:50.145Z,1018.49
2023-07-06T05:36:19.223Z,1018.59
2023-07-06T05:36:50.309Z,1018.59
2023-07-06T05:37:30.892Z,1018.59
2023-07-06T05:37:52.200Z,1018.59
2023-07-06T05:38:23.323Z,1018.49
2023-07-06T05:38:54.226Z,1018.49
2023-07-06T05:39:25.188Z,1018.39
2023-07-06T05:39:56.296Z,1018.39
2023-07-06T05:40:27.880Z,1018.49
2023-07-06T05:40:58.238Z,1018.49
2023-07-06T05:41:29.236Z,1018.49
2023-07-06T05:42:00.651Z,1018.49
2023-07-06T05:42:31.466Z,1018.39
2023-07-06T05:43:02.211Z,1018.39
2023-07-06T05:43:33.263Z,1018.49
2023-07-06T05:44:04.288Z,1018.49
2023-07-06T05:44:35.341Z,1018.49
2023-07-06T05:45:07.012Z,1018.39
2023-07-06T05:45:37.633Z,1018.39
2023-07-06T05:46:08.397Z,1018.59
2023-07-06T05:46:39.451Z,1018.59
2023-07-06T05:47:10.340Z,1018.59
2023-07-06T05:47:41.378Z,1018.59
2023-07-06T05:48:12.332Z,1018.59
2023-07-06T05:48:43.360Z,1018.59
2023-07-06T05:49:14.321Z,1018.49
2023-07-06T05:49:45.367Z,1018.49
2023-07-06T05:50:17.498Z,1018.49
2023-07-06T05:50:47.923Z,1018.49
2023-07-06T05:51:18.342Z,1018.59
2023-07-06T05:51:49.365Z,1018.59
2023-07-06T05:52:20.354Z,1018.69
2023-07-06T05:52:51.340Z,1018.69
2023-07-06T05:53:22.417Z,1018.79
2023-07-06T05:53:53.340Z,1018.79
2023-07-06T05:54:24.304Z,1018.59
2023-07-06T05:54:55.334Z,1018.59
2023-07-06T05:55:27.175Z,1018.59
2023-07-06T05:55:57.468Z,1018.59
2023-07-06T05:56:28.667Z,1018.49
2023-07-06T05:57:00.504Z,1018.49
2023-07-06T05:57:30.341Z,1018.49
2023-07-06T05:58:01.618Z,1018.49
2023-07-06T05:58:32.329Z,1018.49
2023-07-06T05:59:03.340Z,1018.49
2023-07-06T05:59:34.652Z,1018.69
2023-07-06T06:00:08.223Z,1018.69
2023-07-06T06:00:36.357Z,1018.69
2023-07-06T06:01:07.338Z,1018.69
2023-07-06T06:01:38.339Z,1018.69
2023-07-06T06:02:09.403Z,1018.69
2023-07-06T06:02:40.359Z,1018.69
2023-07-06T06:03:11.357Z,1018.59
2023-07-06T06:03:42.769Z,1018.59
2023-07-06T06:04:13.696Z,1018.69
2023-07-06T06:04:44.661Z,1018.69
2023-07-06T06:05:16.432Z,1018.49
2023-07-06T06:05:46.661Z,1018.49
2023-07-06T06:06:17.663Z,1018.59
2023-07-06T06:06:48.688Z,1018.59
2023-07-06T06:07:19.684Z,1018.79
2023-07-06T06:07:50.717Z,1018.79
2023-07-06T06:08:22.016Z,1018.59
2023-07-06T06:08:52.673Z,1018.59
2023-07-06T06:09:23.625Z,1018.59
2023-07-06T06:09:54.702Z,1018.59
2023-07-06T06:10:26.327Z,1018.59
2023-07-06T06:10:56.639Z,1018.59
2023-07-06T06:11:27.652Z,1018.69
2023-07-06T06:11:58.688Z,1018.69
2023-07-06T06:12:29.646Z,1018.49
2023-07-06T06:13:00.719Z,1018.49
2023-07-06T06:13:31.982Z,1018.69
2023-07-06T06:14:02.821Z,1018.69
2023-07-06T06:14:33.701Z,1018.69
2023-07-06T06:15:05.389Z,1018.69